Terminal Aerodrome Forecast
Issued by NWS Norman, OK

Current Version | Previous Version | Text Only | Print | Product List | Glossary Off
Versions: 1 2 3 4 5 6 7 8 9 10 11 12 13 14 15 16 17 18 19 20 21 22 23 24

000
FTUS44 KOUN 131731
TAFOKC
TAF
KOKC 131731Z 1318/1418 04007KT P6SM BKN016
     FM131900 06006KT P6SM FEW016 BKN250
     FM140000 15005KT P6SM SCT100 BKN250
     FM141500 17009KT P6SM BKN035=

USA.gov is the U.S. government's official web portal to all federal, state and local government web resources and services.